Time;durP1;ratioP1;P1;durP2;ratioP2;P2;SDS_P1;SDS_P2;PMS_P1;PMS_P2;Temp;Humidity;BMP_temperature;BMP_pressure;BME280_temperature;BME280_humidity;BME280_pressure;Samples;Min_cycle;Max_cycle;Signal;HPM_P1;HPM_P2
2023/01/27 00:00:49;;;;;;;0.80;0.80;;;;;;;-5.12;93.87;99558.19;4985834;28;20046;-81
2023/01/27 00:03:17;;;;;;;0.80;0.80;;;;;;;-5.17;93.89;99550.69;5001425;28;20050;-81
2023/01/27 00:05:45;;;;;;;0.68;0.68;;;;;;;-5.19;94.06;99555.28;5000248;28;20076;-81
2023/01/27 00:08:12;;;;;;;0.80;0.80;;;;;;;-5.18;93.94;99556.09;5002290;28;20101;-80
2023/01/27 00:10:39;;;;;;;0.80;0.80;;;;;;;-5.15;94.11;99561.94;5000789;28;20057;-79
2023/01/27 00:15:52;;;;;;;0.68;0.68;;;;;;;-5.24;94.29;99558.28;5002800;28;20146;-81
2023/01/27 00:18:19;;;;;;;0.65;0.65;;;;;;;-5.23;94.39;99565.22;5000201;28;20050;-80
2023/01/27 00:26:18;;;;;;;0.98;0.98;;;;;;;-5.40;95.28;99560.53;5002501;28;20042;-85
2023/01/27 00:28:46;;;;;;;0.88;0.88;;;;;;;-5.40;95.52;99568.44;5005441;28;20054;-84
2023/01/27 00:34:07;;;;;;;0.90;0.90;;;;;;;-5.48;95.97;99557.72;4986695;28;20056;-83
2023/01/27 00:36:37;;;;;;;0.82;0.82;;;;;;;-5.49;96.41;99558.69;4978648;28;20072;-81
2023/01/27 00:39:06;;;;;;;1.00;1.00;;;;;;;-5.52;96.56;99543.16;4978344;28;20509;-82
2023/01/27 00:41:34;;;;;;;0.77;0.77;;;;;;;-5.53;96.92;99557.28;4977956;28;20052;-82
2023/01/27 00:44:04;;;;;;;0.77;0.77;;;;;;;-5.50;97.22;99551.75;4994431;28;20046;-82
2023/01/27 00:46:31;;;;;;;0.85;0.85;;;;;;;-5.53;97.05;99562.53;4962560;28;20715;-81
2023/01/27 00:49:00;;;;;;;0.70;0.70;;;;;;;-5.52;97.35;99549.25;4977735;28;20050;-81
2023/01/27 00:51:30;;;;;;;0.90;0.90;;;;;;;-5.50;97.47;99549.13;4961511;28;20141;-83
2023/01/27 00:53:58;;;;;;;0.88;0.88;;;;;;;-5.50;97.66;99551.75;4977403;28;20052;-80
2023/01/27 00:56:29;;;;;;;0.88;0.88;;;;;;;-5.54;97.90;99551.19;4977690;28;20135;-82
2023/01/27 00:58:56;;;;;;;0.90;0.90;;;;;;;-5.60;97.72;99546.41;4977699;28;20061;-82
2023/01/27 01:01:23;;;;;;;0.80;0.80;;;;;;;-5.63;98.16;99538.78;4977549;28;20069;-81
2023/01/27 01:03:53;;;;;;;0.60;0.60;;;;;;;-5.63;98.37;99541.41;5010360;28;20057;-82
2023/01/27 01:06:20;;;;;;;0.90;0.90;;;;;;;-5.59;98.66;99548.09;4946766;28;20085;-81
2023/01/27 01:08:48;;;;;;;0.70;0.70;;;;;;;-5.54;98.73;99542.47;4993367;28;20074;-81
2023/01/27 01:11:17;;;;;;;0.80;0.80;;;;;;;-5.55;98.96;99528.47;4961971;28;20041;-82
2023/01/27 01:13:45;;;;;;;0.70;0.70;;;;;;;-5.55;98.91;99536.34;4977430;28;20058;-81
2023/01/27 01:16:15;;;;;;;0.60;0.60;;;;;;;-5.59;98.90;99529.69;4961593;28;20145;-81
2023/01/27 01:18:42;;;;;;;0.80;0.80;;;;;;;-5.59;98.93;99529.69;4961120;28;20045;-82
2023/01/27 01:21:11;;;;;;;0.80;0.80;;;;;;;-5.62;98.97;99540.47;4961032;28;20056;-81
2023/01/27 01:23:40;;;;;;;0.80;0.80;;;;;;;-5.62;98.89;99522.06;4961238;28;20078;-82
2023/01/27 01:26:09;;;;;;;0.80;0.80;;;;;;;-5.63;98.82;99535.34;4961236;28;20128;-82
2023/01/27 01:28:37;;;;;;;0.80;0.80;;;;;;;-5.66;98.89;99518.84;4960823;28;20508;-82
2023/01/27 01:31:10;;;;;;;0.80;0.80;;;;;;;-5.66;99.18;99520.66;4992935;28;20496;-81
2023/01/27 01:33:37;;;;;;;0.90;0.90;;;;;;;-5.63;99.54;99523.00;4992908;28;20461;-80
2023/01/27 01:36:10;;;;;;;0.70;0.70;;;;;;;-5.64;99.65;99531.03;5010335;28;20073;-82
2023/01/27 01:38:37;;;;;;;0.70;0.70;;;;;;;-5.63;99.56;99524.81;5010000;28;20108;-82
2023/01/27 01:41:06;;;;;;;0.80;0.80;;;;;;;-5.61;99.30;99534.25;4993062;28;20132;-82
2023/01/27 01:43:33;;;;;;;0.80;0.80;;;;;;;-5.63;99.47;99535.34;5010735;28;20084;-82
2023/01/27 01:46:01;;;;;;;0.85;0.85;;;;;;;-5.67;99.06;99529.50;5012332;28;20069;-82
2023/01/27 01:48:31;;;;;;;0.60;0.60;;;;;;;-5.63;98.87;99532.72;4994877;28;20546;-82
2023/01/27 01:51:07;;;;;;;0.90;0.90;;;;;;;-5.63;98.97;99512.50;4994623;28;20420;-82
2023/01/27 01:53:52;;;;;;;0.70;0.70;;;;;;;-5.61;98.71;99528.16;5010797;28;20819;-82
2023/01/27 01:56:26;;;;;;;0.77;0.77;;;;;;;-5.62;98.54;99519.44;5009743;28;20060;-81
2023/01/27 01:58:56;;;;;;;0.80;0.80;;;;;;;-5.64;98.81;99523.16;5010245;28;20054;-81
2023/01/27 02:01:23;;;;;;;0.60;0.60;;;;;;;-5.61;98.92;99513.19;4992827;28;20420;-82
2023/01/27 02:03:53;;;;;;;0.77;0.77;;;;;;;-5.58;98.79;99512.13;4992859;28;20104;-81
2023/01/27 02:06:20;;;;;;;0.80;0.80;;;;;;;-5.61;98.55;99518.47;5009492;28;20550;-81
2023/01/27 02:08:49;;;;;;;0.70;0.70;;;;;;;-5.64;98.47;99523.16;5010350;28;20066;-82
2023/01/27 02:11:16;;;;;;;0.70;0.70;;;;;;;-5.66;97.98;99518.03;5009440;28;20050;-82
2023/01/27 02:13:47;;;;;;;0.60;0.60;;;;;;;-5.67;97.92;99519.00;5009505;28;20144;-82
2023/01/27 02:16:17;;;;;;;0.67;0.67;;;;;;;-5.71;97.55;99510.50;4993914;28;20053;-82
2023/01/27 02:18:45;;;;;;;0.75;0.75;;;;;;;-5.69;97.62;99520.91;5008427;28;20061;-82
2023/01/27 02:21:12;;;;;;;0.77;0.77;;;;;;;-5.72;97.28;99510.63;5009654;28;20523;-81
2023/01/27 02:23:45;;;;;;;0.77;0.77;;;;;;;-5.77;96.96;99504.91;5009801;28;20069;-82
2023/01/27 02:26:19;;;;;;;0.73;0.73;;;;;;;-5.78;96.76;99511.97;5009804;28;20050;-82
2023/01/27 02:28:54;;;;;;;0.90;0.90;;;;;;;-5.82;96.26;99507.94;5009469;28;20527;-81
2023/01/27 02:31:22;;;;;;;0.70;0.70;;;;;;;-5.85;96.35;99502.09;5009678;28;20046;-82
2023/01/27 02:33:50;;;;;;;0.82;0.82;;;;;;;-5.84;96.37;99503.78;5010419;28;20458;-82
2023/01/27 02:36:17;;;;;;;0.68;0.68;;;;;;;-5.84;96.24;99501.97;4991956;28;20038;-82
2023/01/27 02:38:52;;;;;;;0.60;0.60;;;;;;;-5.82;96.22;99509.72;4973542;28;20482;-82
2023/01/27 02:41:26;;;;;;;0.70;0.70;;;;;;;-5.84;96.03;99507.25;4972741;28;20132;-82
2023/01/27 02:43:54;;;;;;;0.80;0.80;;;;;;;-5.88;95.95;99500.56;4972819;28;20412;-82
2023/01/27 02:46:21;;;;;;;0.70;0.70;;;;;;;-5.85;96.03;99500.28;4956543;28;20061;-82
2023/01/27 02:48:48;;;;;;;0.60;0.60;;;;;;;-5.85;95.84;99502.94;4990826;28;20733;-81
2023/01/27 02:51:16;;;;;;;0.82;0.82;;;;;;;-5.86;95.71;99497.81;4991824;28;20121;-81
2023/01/27 02:53:43;;;;;;;0.90;0.90;;;;;;;-5.82;95.74;99496.56;5009060;28;20042;-82
2023/01/27 02:56:11;;;;;;;0.88;0.88;;;;;;;-5.81;95.31;99496.47;4991970;28;20050;-82
2023/01/27 02:58:37;;;;;;;0.90;0.90;;;;;;;-5.86;95.34;99493.38;5009241;28;20142;-82
2023/01/27 03:01:15;;;;;;;0.70;0.70;;;;;;;-5.83;95.55;99487.88;4991932;28;20525;-82
2023/01/27 03:03:46;;;;;;;0.80;0.80;;;;;;;-5.85;95.42;99513.44;4993320;28;20079;-83
2023/01/27 03:06:19;;;;;;;0.90;0.90;;;;;;;-5.87;95.47;99502.25;4992179;28;20054;-82
2023/01/27 03:08:46;;;;;;;0.60;0.60;;;;;;;-5.84;95.64;99504.63;4991413;28;20513;-82
2023/01/27 03:12:18;;;;;;;0.80;0.80;;;;;;;-5.84;95.27;99499.34;5009217;28;20061;-82
2023/01/27 03:14:02;;;;;;;0.73;0.73;;;;;;;-5.82;95.34;99496.56;4991356;28;20054;-81
2023/01/27 03:19:15;;;;;;;0.85;0.85;;;;;;;-5.82;95.33;99496.56;5008005;28;20049;-82
2023/01/27 03:21:44;;;;;;;0.85;0.85;;;;;;;-5.81;95.34;99509.59;4991495;28;20049;-82
2023/01/27 03:24:11;;;;;;;0.70;0.70;;;;;;;-5.85;94.96;99510.81;4991664;28;20103;-82
2023/01/27 03:26:39;;;;;;;0.70;0.70;;;;;;;-5.81;95.18;99506.97;4995231;28;20050;-82
2023/01/27 03:31:54;;;;;;;0.70;0.70;;;;;;;-5.80;95.15;99500.75;4995059;28;20486;-82
2023/01/27 03:34:21;;;;;;;0.77;0.77;;;;;;;-5.77;95.14;99512.81;4978933;28;20108;-81
2023/01/27 03:47:56;;;;;;;0.90;0.90;;;;;;;-5.80;94.42;99503.38;5010736;28;20050;-83
2023/01/27 03:50:29;;;;;;;0.82;0.82;;;;;;;-5.81;94.24;99500.88;5013389;28;20069;-81
2023/01/27 03:53:02;;;;;;;0.70;0.70;;;;;;;-5.85;93.70;99495.03;4980630;28;20046;-81
2023/01/27 03:55:31;;;;;;;0.70;0.70;;;;;;;-5.85;93.40;99495.03;4661293;28;10000404;-80
2023/01/27 03:58:13;;;;;;;0.70;0.70;;;;;;;-5.87;93.51;99499.63;5000071;28;20054;-80
2023/01/27 04:00:41;;;;;;;0.60;0.60;;;;;;;-5.89;93.86;99502.34;4988735;28;20050;-83
2023/01/27 04:08:42;;;;;;;0.85;0.85;;;;;;;-5.86;93.56;99509.16;5009004;28;20493;-80
2023/01/27 04:14:04;;;;;;;0.85;0.85;;;;;;;-5.86;93.35;99503.91;5006078;28;20050;-79
2023/01/27 04:16:33;;;;;;;0.77;0.77;;;;;;;-5.83;93.22;99500.19;4999947;28;20051;-80
2023/01/27 04:19:00;;;;;;;0.88;0.88;;;;;;;-5.83;93.15;99501.00;5009829;28;20050;-82
2023/01/27 04:21:27;;;;;;;0.73;0.73;;;;;;;-5.86;93.06;99509.16;5012146;28;20064;-81
2023/01/27 04:23:54;;;;;;;0.70;0.70;;;;;;;-5.88;92.98;99501.38;5013008;28;20148;-81
2023/01/27 04:26:22;;;;;;;0.63;0.63;;;;;;;-5.88;92.95;99506.63;5014070;28;20069;-82
2023/01/27 04:28:50;;;;;;;0.75;0.75;;;;;;;-5.88;92.89;99496.13;5011847;28;20057;-81
2023/01/27 04:31:17;;;;;;;0.98;0.98;;;;;;;-5.82;92.91;99507.09;5012053;28;20166;-82
2023/01/27 04:33:44;;;;;;;0.80;0.80;;;;;;;-5.82;92.70;99515.84;5011712;28;20397;-81
2023/01/27 04:36:12;;;;;;;1.00;1.00;;;;;;;-5.89;92.75;99506.78;5011385;28;20501;-81
2023/01/27 04:38:43;;;;;;;0.60;0.60;;;;;;;-5.86;92.89;99524.09;5011806;28;20077;-81
2023/01/27 04:41:11;;;;;;;0.70;0.70;;;;;;;-5.85;92.90;99516.06;5012072;28;20425;-81
2023/01/27 04:43:38;;;;;;;0.90;0.90;;;;;;;-5.83;93.05;99519.41;5011855;28;20057;-82
2023/01/27 04:46:05;;;;;;;0.73;0.73;;;;;;;-5.81;92.90;99514.03;5011991;28;20505;-81
2023/01/27 04:48:33;;;;;;;0.65;0.65;;;;;;;-5.75;92.65;99516.16;5010433;28;20108;-81
2023/01/27 04:51:00;;;;;;;0.70;0.70;;;;;;;-5.87;92.56;99504.88;5011795;28;20050;-81
2023/01/27 04:53:27;;;;;;;0.70;0.70;;;;;;;-5.82;92.77;99513.22;5011686;28;20072;-81
2023/01/27 04:56:01;;;;;;;0.80;0.80;;;;;;;-5.88;92.38;99517.16;5009683;28;20042;-82
2023/01/27 04:58:29;;;;;;;0.80;0.80;;;;;;;-5.81;92.63;99532.44;4993925;28;20045;-81
2023/01/27 05:00:56;;;;;;;0.90;0.90;;;;;;;-5.84;92.49;99527.44;4993490;28;20054;-81
2023/01/27 05:03:23;;;;;;;0.80;0.80;;;;;;;-5.78;92.32;99526.94;4993804;28;20507;-82
2023/01/27 05:05:50;;;;;;;0.88;0.88;;;;;;;-5.77;92.24;99534.69;5010893;28;20137;-81
2023/01/27 05:08:19;;;;;;;0.80;0.80;;;;;;;-5.76;92.40;99536.34;5011148;28;20056;-83
2023/01/27 05:10:46;;;;;;;0.70;0.70;;;;;;;-5.79;92.22;99531.34;5011204;28;20149;-82
2023/01/27 05:13:15;;;;;;;0.70;0.70;;;;;;;-5.78;92.54;99530.38;5010859;28;20085;-82
2023/01/27 05:15:42;;;;;;;0.80;0.80;;;;;;;-5.77;92.49;99529.44;4989170;28;20077;-81
2023/01/27 05:18:09;;;;;;;0.80;0.80;;;;;;;-5.76;92.22;99541.59;4990967;28;20596;-82
2023/01/27 05:20:36;;;;;;;0.70;0.70;;;;;;;-5.77;92.43;99539.94;4991502;28;20050;-81
2023/01/27 05:25:49;;;;;;;0.77;0.77;;;;;;;-5.81;92.19;99541.16;4998717;28;20084;-81
2023/01/27 05:28:17;;;;;;;0.75;0.75;;;;;;;-5.87;92.38;99539.03;5014143;28;20041;-81
2023/01/27 05:30:44;;;;;;;0.77;0.77;;;;;;;-5.82;92.59;99544.75;4946293;28;20555;-82
2023/01/27 05:33:12;;;;;;;0.65;0.65;;;;;;;-5.86;92.42;99545.97;5010537;28;20099;-82
2023/01/27 05:35:39;;;;;;;0.73;0.73;;;;;;;-5.82;92.49;99547.38;4945138;28;20160;-82
2023/01/27 05:38:06;;;;;;;0.80;0.80;;;;;;;-5.79;92.76;99557.66;4948283;28;20050;-81
2023/01/27 05:40:35;;;;;;;0.70;0.70;;;;;;;-5.84;92.85;99549.31;4977305;28;20041;-80
2023/01/27 05:43:04;;;;;;;0.57;0.57;;;;;;;-5.76;92.78;99561.81;4961707;28;20073;-82
2023/01/27 05:45:31;;;;;;;0.85;0.85;;;;;;;-5.81;92.98;99561.38;5010785;28;20054;-81
2023/01/27 05:47:58;;;;;;;0.80;0.80;;;;;;;-5.80;93.04;99577.00;4993407;28;20425;-81
2023/01/27 05:50:25;;;;;;;0.80;0.80;;;;;;;-5.86;93.04;99555.66;5010603;28;20416;-82
2023/01/27 05:52:52;;;;;;;0.77;0.77;;;;;;;-5.81;92.84;99559.56;5010564;28;20352;-80
2023/01/27 05:55:19;;;;;;;0.80;0.80;;;;;;;-5.86;92.88;99561.72;4993191;28;20572;-81
2023/01/27 05:57:47;;;;;;;0.65;0.65;;;;;;;-5.81;93.28;99564.81;5009472;28;20046;-80
2023/01/27 06:00:14;;;;;;;0.80;0.80;;;;;;;-5.86;93.06;99561.72;5010907;28;20570;-81
2023/01/27 06:02:41;;;;;;;0.80;0.80;;;;;;;-5.84;93.24;99564.25;5010685;28;20045;-82
2023/01/27 06:05:08;;;;;;;0.80;0.80;;;;;;;-5.84;93.70;99577.41;5010888;28;20050;-81
2023/01/27 06:07:36;;;;;;;0.70;0.70;;;;;;;-5.78;93.80;99579.50;4993231;28;20060;-82
2023/01/27 06:10:04;;;;;;;0.70;0.70;;;;;;;-5.81;93.78;99575.34;5009383;28;20422;-81
2023/01/27 06:12:32;;;;;;;0.90;0.90;;;;;;;-5.81;93.62;99577.13;5010516;28;20425;-80
2023/01/27 06:14:59;;;;;;;0.80;0.80;;;;;;;-5.79;93.89;99575.22;4996281;28;20143;-81
2023/01/27 06:17:27;;;;;;;0.82;0.82;;;;;;;-5.76;93.74;99585.47;4991120;28;20050;-81
2023/01/27 06:19:54;;;;;;;0.80;0.80;;;;;;;-5.74;93.69;99579.13;4991053;28;20506;-81
2023/01/27 06:22:21;;;;;;;0.90;0.90;;;;;;;-5.69;93.64;99569.06;5000174;28;20050;-81
2023/01/27 06:24:48;;;;;;;0.80;0.80;;;;;;;-5.67;93.42;99572.41;5010269;28;20554;-82
2023/01/27 06:27:15;;;;;;;0.85;0.85;;;;;;;-5.64;93.35;99575.75;5010538;28;20136;-81
2023/01/27 06:29:42;;;;;;;0.80;0.80;;;;;;;-5.66;92.75;99574.06;5010391;28;20077;-81
2023/01/27 06:32:09;;;;;;;0.50;0.50;;;;;;;-5.64;93.06;99570.50;5010711;28;20141;-82
2023/01/27 06:34:36;;;;;;;0.60;0.60;;;;;;;-5.60;92.62;99574.53;5010616;28;20107;-81
2023/01/27 06:37:03;;;;;;;0.70;0.70;;;;;;;-5.61;92.59;99568.44;5011266;28;20061;-82
2023/01/27 06:39:30;;;;;;;0.90;0.90;;;;;;;-5.56;92.35;99566.25;5010968;28;20536;-81
2023/01/27 06:41:57;;;;;;;0.70;0.70;;;;;;;-5.55;92.15;99575.78;5010748;28;20083;-81
2023/01/27 06:44:24;;;;;;;0.70;0.70;;;;;;;-5.52;91.95;99577.34;4977466;28;20501;-82
2023/01/27 06:46:52;;;;;;;0.80;0.80;;;;;;;-5.48;91.95;99566.44;5010530;28;20057;-82
2023/01/27 06:49:20;;;;;;;0.68;0.68;;;;;;;-5.42;91.72;99586.13;5010988;28;20054;-82
2023/01/27 06:51:47;;;;;;;0.80;0.80;;;;;;;-5.49;91.19;99575.31;5011298;28;20054;-82
2023/01/27 06:54:15;;;;;;;0.70;0.70;;;;;;;-5.53;91.30;99570.44;5011111;28;20046;-82
2023/01/27 06:56:42;;;;;;;0.80;0.80;;;;;;;-5.49;91.33;99571.84;5010232;28;20054;-81
2023/01/27 06:59:09;;;;;;;0.90;0.90;;;;;;;-5.45;91.38;99570.59;4992861;28;20057;-82
2023/01/27 07:01:36;;;;;;;0.80;0.80;;;;;;;-5.43;91.07;99570.50;5013863;28;20145;-81
2023/01/27 07:04:03;;;;;;;0.90;0.90;;;;;;;-5.42;90.75;99580.03;5013875;28;20505;-80
2023/01/27 07:06:30;;;;;;;0.80;0.80;;;;;;;-5.37;91.13;99588.38;5014174;28;20054;-80
2023/01/27 07:08:57;;;;;;;0.65;0.65;;;;;;;-5.34;91.21;99578.47;4996585;28;20081;-82
2023/01/27 07:11:24;;;;;;;0.80;0.80;;;;;;;-5.36;90.95;99572.47;5014019;28;20042;-82
2023/01/27 07:13:51;;;;;;;0.75;0.75;;;;;;;-5.30;90.86;99590.38;5014685;28;20046;-82
2023/01/27 07:16:18;;;;;;;0.80;0.80;;;;;;;-5.29;90.82;99584.16;5013855;28;20053;-82
2023/01/27 07:18:45;;;;;;;0.95;0.95;;;;;;;-5.26;90.97;99598.84;5013778;28;20046;-81
2023/01/27 07:21:12;;;;;;;0.85;0.85;;;;;;;-5.20;90.57;99593.06;5014107;28;20054;-83
2023/01/27 07:23:39;;;;;;;0.82;0.82;;;;;;;-5.12;90.52;99581.88;5013205;28;20069;-81
2023/01/27 07:26:06;;;;;;;0.80;0.80;;;;;;;-5.11;90.03;99587.03;5013497;28;20061;-82
2023/01/27 07:28:50;;;;;;;0.68;0.68;;;;;;;-5.12;89.97;99590.63;4998632;28;20057;-83
2023/01/27 07:31:17;;;;;;;0.90;0.90;;;;;;;-5.07;90.24;99588.44;5013762;28;20053;-81
2023/01/27 07:33:44;;;;;;;0.60;0.60;;;;;;;-5.05;89.89;99585.69;5013627;28;20125;-81
2023/01/27 07:36:11;;;;;;;0.80;0.80;;;;;;;-5.08;89.84;99591.22;5013554;28;20046;-81
2023/01/27 07:38:38;;;;;;;0.70;0.70;;;;;;;-5.04;89.95;99592.59;5011948;28;20132;-81
2023/01/27 07:41:06;;;;;;;0.80;0.80;;;;;;;-5.05;89.88;99590.94;5013448;28;20053;-81
2023/01/27 07:43:33;;;;;;;0.68;0.68;;;;;;;-5.02;89.53;99595.94;5013217;28;20138;-81
2023/01/27 07:46:06;;;;;;;0.80;0.80;;;;;;;-5.02;89.46;99598.56;5012039;28;20061;-83
2023/01/27 07:48:33;;;;;;;0.73;0.73;;;;;;;-5.02;89.26;99594.13;5012218;28;20050;-84
2023/01/27 07:51:00;;;;;;;0.70;0.70;;;;;;;-5.03;89.55;99605.63;4995486;28;20096;-82
2023/01/27 07:53:28;;;;;;;0.75;0.75;;;;;;;-4.99;89.83;99608.84;4995754;28;20496;-82
2023/01/27 07:55:59;;;;;;;0.80;0.80;;;;;;;-4.98;89.65;99610.53;5012748;28;20053;-82
2023/01/27 07:58:26;;;;;;;0.95;0.95;;;;;;;-4.96;89.77;99613.88;5013066;28;20153;-81
2023/01/27 08:00:52;;;;;;;1.00;1.00;;;;;;;-4.92;89.89;99612.63;5012645;28;20511;-81
2023/01/27 08:03:24;;;;;;;0.65;0.65;;;;;;;-4.89;89.64;99614.97;4995578;28;20116;-82
2023/01/27 08:05:51;;;;;;;0.68;0.68;;;;;;;-4.89;89.44;99608.88;5012671;28;20073;-81
2023/01/27 08:08:20;;;;;;;0.70;0.70;;;;;;;-4.96;89.59;99605.97;4980326;28;20057;-84
2023/01/27 08:10:48;;;;;;;0.75;0.75;;;;;;;-4.99;89.89;99624.63;4994885;28;20575;-82
2023/01/27 08:13:15;;;;;;;0.80;0.80;;;;;;;-4.99;89.99;99608.84;5012483;28;20141;-83
2023/01/27 08:15:42;;;;;;;0.75;0.75;;;;;;;-4.95;90.27;99610.25;5012454;28;20077;-83
2023/01/27 08:18:09;;;;;;;0.60;0.60;;;;;;;-4.93;90.25;99608.31;5012945;28;20394;-84
2023/01/27 08:20:36;;;;;;;0.80;0.80;;;;;;;-4.95;90.36;99609.44;5012867;28;20429;-83
2023/01/27 08:23:03;;;;;;;0.63;0.63;;;;;;;-4.99;90.51;99614.09;5012801;28;20046;-81
2023/01/27 08:25:30;;;;;;;0.95;0.95;;;;;;;-4.96;90.85;99613.88;5013144;28;20432;-84
2023/01/27 08:27:57;;;;;;;0.80;0.80;;;;;;;-4.98;90.99;99617.59;5012575;28;20053;-81
2023/01/27 08:30:25;;;;;;;0.80;0.80;;;;;;;-4.99;91.32;99614.09;4994876;28;20133;-81
2023/01/27 08:32:54;;;;;;;0.70;0.70;;;;;;;-4.97;92.13;99612.19;5012064;28;20046;-81
2023/01/27 08:35:21;;;;;;;0.60;0.60;;;;;;;-4.94;92.29;99618.97;5012213;28;20050;-81
2023/01/27 08:37:48;;;;;;;0.70;0.70;;;;;;;-4.91;92.39;99624.84;5012176;28;20500;-82
2023/01/27 08:40:16;;;;;;;0.80;0.80;;;;;;;-4.89;92.69;99625.50;5012562;28;20111;-82
2023/01/27 08:42:43;;;;;;;0.80;0.80;;;;;;;-4.89;92.81;99625.50;5012088;28;20077;-82
2023/01/27 08:45:10;;;;;;;0.90;0.90;;;;;;;-4.85;92.58;99620.84;5012362;28;20050;-83
2023/01/27 08:47:40;;;;;;;0.70;0.70;;;;;;;-4.79;92.91;99625.56;5011638;28;20049;-82
2023/01/27 08:50:08;;;;;;;0.63;0.63;;;;;;;-4.79;92.81;99626.41;5012023;28;20073;-82
2023/01/27 08:52:35;;;;;;;0.57;0.57;;;;;;;-4.72;92.74;99620.63;5012038;28;20046;-82
2023/01/27 08:55:03;;;;;;;0.90;0.90;;;;;;;-4.69;92.35;99617.72;5012838;28;20060;-82
2023/01/27 08:57:31;;;;;;;0.80;0.80;;;;;;;-4.64;92.64;99612.88;4996426;28;20046;-81
2023/01/27 08:59:59;;;;;;;0.77;0.77;;;;;;;-4.69;92.12;99609.81;5013883;28;20056;-82
2023/01/27 09:02:26;;;;;;;0.70;0.70;;;;;;;-4.63;92.20;99622.47;5013275;28;20084;-81
2023/01/27 09:04:53;;;;;;;0.80;0.80;;;;;;;-4.62;91.97;99605.69;5011834;28;20057;-82
2023/01/27 09:07:20;;;;;;;0.70;0.70;;;;;;;-4.57;91.52;99606.13;5011909;28;20069;-82
2023/01/27 09:09:48;;;;;;;0.90;0.90;;;;;;;-4.58;91.33;99604.47;5012197;28;20046;-82
2023/01/27 09:12:21;;;;;;;0.70;0.70;;;;;;;-4.58;90.61;99607.94;5015811;28;20057;-82
2023/01/27 09:14:48;;;;;;;0.73;0.73;;;;;;;-4.65;90.74;99606.78;5013133;28;20084;-83
2023/01/27 09:17:18;;;;;;;0.80;0.80;;;;;;;-4.52;90.89;99621.53;5011319;28;20128;-82
2023/01/27 09:19:46;;;;;;;0.80;0.80;;;;;;;-4.51;90.80;99613.50;5011611;28;20092;-82
2023/01/27 09:22:13;;;;;;;0.70;0.70;;;;;;;-4.45;90.57;99620.06;5011471;28;20152;-83
2023/01/27 09:24:40;;;;;;;1.23;1.13;;;;;;;-4.54;90.85;99616.41;5011493;28;20046;-80
2023/01/27 09:27:07;;;;;;;0.80;0.80;;;;;;;-4.50;90.84;99607.28;5011868;28;20050;-82
2023/01/27 09:29:35;;;;;;;0.90;0.90;;;;;;;-4.55;91.05;99609.47;5011347;28;20615;-82
2023/01/27 09:32:03;;;;;;;1.10;1.10;;;;;;;-4.57;91.57;99611.41;4994252;28;20054;-83
2023/01/27 09:34:30;;;;;;;0.60;0.60;;;;;;;-4.65;91.54;99595.44;4978277;28;20601;-81
2023/01/27 09:37:09;;;;;;;0.73;0.73;;;;;;;-4.52;91.92;99614.47;4962519;28;20049;-82
2023/01/27 09:39:40;;;;;;;0.50;0.50;;;;;;;-4.58;92.03;99605.31;4961802;28;20050;-82
2023/01/27 09:42:39;;;;;;;0.70;0.70;;;;;;;-4.51;91.99;99610.03;5009911;28;20426;-81
2023/01/27 09:45:44;;;;;;;0.80;0.80;;;;;;;-4.52;91.76;99617.09;5011260;28;20551;-82
2023/01/27 09:48:18;;;;;;;0.95;0.95;;;;;;;-4.56;91.92;99610.41;4970092;28;20165;-82
2023/01/27 09:51:04;;;;;;;0.80;0.80;;;;;;;-4.58;92.03;99591.31;4969525;28;20051;-81
2023/01/27 09:53:56;;;;;;;0.90;0.90;;;;;;;-4.48;92.00;99610.63;4969756;28;20046;-81
2023/01/27 09:56:42;;;;;;;0.95;0.95;;;;;;;-4.47;91.91;99617.53;4953691;28;20525;-81
2023/01/27 09:59:45;;;;;;;0.70;0.70;;;;;;;-4.49;92.05;99610.72;4969593;28;20058;-81
2023/01/27 10:02:18;;;;;;;0.90;0.90;;;;;;;-4.44;92.03;99613.81;4969659;28;20053;-82
2023/01/27 10:04:54;;;;;;;0.82;0.82;;;;;;;-4.39;92.01;99614.22;4969691;28;20117;-82
2023/01/27 10:07:38;;;;;;;0.80;0.80;;;;;;;-4.37;91.92;99604.41;4969446;28;20063;-82
2023/01/27 10:10:30;;;;;;;0.98;0.98;;;;;;;-4.28;91.92;99603.59;4969334;28;20055;-81
2023/01/27 10:13:12;;;;;;;0.77;0.77;;;;;;;-4.27;91.72;99607.91;4969477;28;20055;-82
2023/01/27 10:16:00;;;;;;;0.90;0.90;;;;;;;-4.30;91.67;99615.22;4968688;28;20058;-82
2023/01/27 10:19:00;;;;;;;0.70;0.70;;;;;;;-4.30;91.59;99607.31;4969251;28;20051;-83
2023/01/27 10:21:31;;;;;;;0.80;0.80;;;;;;;-4.29;91.67;99606.38;4969111;28;20306;-82
2023/01/27 10:24:13;;;;;;;0.77;0.77;;;;;;;-4.32;91.58;99596.91;4971744;28;20565;-82
2023/01/27 10:26:41;;;;;;;0.70;0.70;;;;;;;-4.21;91.56;99609.97;4994816;28;20423;-82
2023/01/27 10:29:44;;;;;;;0.70;0.70;;;;;;;-4.22;91.51;99607.50;5010642;28;20054;-82
2023/01/27 10:32:42;;;;;;;0.80;0.80;;;;;;;-4.28;91.35;99608.00;4930880;29;20507;-81
2023/01/27 10:35:19;;;;;;;0.82;0.82;;;;;;;-4.32;91.60;99607.47;4876892;29;20763;-84
2023/01/27 10:37:55;;;;;;;0.90;0.90;;;;;;;-4.30;91.56;99609.94;4892815;29;20053;-83
2023/01/27 10:40:48;;;;;;;0.70;0.70;;;;;;;-4.25;91.73;99618.31;4877186;29;20052;-81
2023/01/27 10:43:38;;;;;;;0.70;0.70;;;;;;;-4.24;91.70;99617.34;4893092;29;20056;-83
2023/01/27 10:46:11;;;;;;;0.80;0.80;;;;;;;-4.19;91.76;99621.22;4901595;29;20472;-80
2023/01/27 10:48:51;;;;;;;0.80;0.80;;;;;;;-4.15;91.98;99609.44;4861766;29;20630;-81
2023/01/27 10:51:32;;;;;;;0.80;0.80;;;;;;;-4.15;91.40;99613.91;4877252;29;20051;-83
2023/01/27 10:54:08;;;;;;;0.95;0.95;;;;;;;-4.19;91.18;99625.66;4892632;29;20064;-82
2023/01/27 10:56:49;;;;;;;0.98;0.98;;;;;;;-4.20;91.58;99622.22;4892897;29;20060;-83
2023/01/27 10:59:25;;;;;;;0.82;0.82;;;;;;;-4.15;91.40;99619.16;4877844;29;20076;-82
2023/01/27 11:01:55;;;;;;;0.90;0.90;;;;;;;-4.19;91.50;99629.13;4908262;29;20559;-82
2023/01/27 11:04:44;;;;;;;0.90;0.90;;;;;;;-4.22;91.53;99628.56;4892763;29;20055;-83
2023/01/27 11:07:21;;;;;;;0.85;0.85;;;;;;;-4.18;91.83;99638.72;4918426;29;20142;-81
2023/01/27 11:09:52;;;;;;;0.80;0.80;;;;;;;-4.14;91.79;99631.38;4919430;29;20055;-83
2023/01/27 11:12:26;;;;;;;0.50;0.50;;;;;;;-4.09;92.07;99630.97;4976657;28;20050;-81
2023/01/27 11:14:56;;;;;;;0.65;0.65;;;;;;;-4.08;91.79;99624.72;4986433;28;20112;-82
2023/01/27 11:17:46;;;;;;;0.80;0.80;;;;;;;-4.05;91.78;99624.44;5010227;28;20057;-81
2023/01/27 11:20:25;;;;;;;0.80;0.80;;;;;;;-4.02;91.74;99627.66;5010328;28;20501;-81
2023/01/27 11:23:03;;;;;;;0.60;0.60;;;;;;;-4.03;91.85;99630.41;4988945;28;20046;-81
2023/01/27 11:25:51;;;;;;;0.60;0.60;;;;;;;-4.07;91.65;99626.41;5005690;28;20054;-80
2023/01/27 11:28:40;;;;;;;0.50;0.50;;;;;;;-4.05;91.77;99635.84;5004612;28;20054;-81
2023/01/27 11:31:25;;;;;;;1.00;1.00;;;;;;;-4.04;91.78;99626.13;4993142;28;20060;-83
2023/01/27 11:34:20;;;;;;;0.80;0.80;;;;;;;-4.09;91.61;99629.16;4960349;28;20057;-82
2023/01/27 11:36:48;;;;;;;0.70;0.70;;;;;;;-4.09;91.70;99637.06;5008478;28;20059;-82
2023/01/27 11:39:17;;;;;;;0.80;0.80;;;;;;;-4.07;91.70;99627.22;5009914;28;20045;-81
2023/01/27 11:41:52;;;;;;;0.80;0.80;;;;;;;-4.08;91.72;99625.53;4992520;28;20049;-81
2023/01/27 11:44:25;;;;;;;0.90;0.90;;;;;;;-4.08;91.76;99624.72;5010541;28;20053;-84
2023/01/27 11:46:53;;;;;;;0.60;0.60;;;;;;;-4.09;91.59;99630.97;5010769;28;20474;-82
2023/01/27 11:49:42;;;;;;;0.82;0.82;;;;;;;-4.09;91.71;99629.16;4996100;28;20065;-83
2023/01/27 11:52:14;;;;;;;0.65;0.65;;;;;;;-4.08;92.01;99630.81;5013395;28;20046;-83
2023/01/27 11:54:55;;;;;;;0.63;0.63;;;;;;;-4.07;91.68;99632.50;4995397;28;20528;-83
2023/01/27 11:57:24;;;;;;;0.60;0.60;;;;;;;-4.06;91.86;99628.88;5011971;28;20081;-82
2023/01/27 12:00:00;;;;;;;0.95;0.95;;;;;;;-4.05;92.16;99630.56;5012183;28;20046;-83
2023/01/27 12:02:54;;;;;;;0.80;0.80;;;;;;;-4.00;92.07;99631.00;4995786;28;20149;-82
2023/01/27 12:05:29;;;;;;;0.70;0.70;;;;;;;-4.04;92.00;99632.22;5012361;28;20081;-82
2023/01/27 12:08:00;;;;;;;0.70;0.70;;;;;;;-4.05;92.00;99638.47;4947207;28;20058;-82
2023/01/27 12:10:30;;;;;;;0.70;0.70;;;;;;;-4.04;92.05;99636.66;4978830;28;20049;-82
2023/01/27 12:13:01;;;;;;;0.77;0.77;;;;;;;-4.14;92.12;99634.84;4994327;28;20050;-83
2023/01/27 12:15:29;;;;;;;0.93;0.93;;;;;;;-4.15;92.53;99637.63;4994088;28;20049;-81
2023/01/27 12:18:09;;;;;;;0.73;0.73;;;;;;;-4.11;92.49;99646.09;5011636;28;20049;-82
2023/01/27 12:20:38;;;;;;;0.80;0.80;;;;;;;-4.09;92.41;99646.78;4995848;28;20053;-82
2023/01/27 12:23:24;;;;;;;0.80;0.80;;;;;;;-4.11;92.53;99646.09;4992040;28;20050;-83
2023/01/27 12:25:54;;;;;;;0.70;0.70;;;;;;;-4.15;92.82;99648.16;4990847;28;20492;-82
2023/01/27 12:28:26;;;;;;;0.70;0.70;;;;;;;-4.17;92.83;99643.00;5006317;28;20129;-82
2023/01/27 12:31:01;;;;;;;0.70;0.70;;;;;;;-4.22;92.78;99649.66;5011661;28;20568;-81